Tiempo atmosférico en la estación meteorológica de Villaeles De Valdavia, Palencia (908 m.)



Fecha
DESCASC
Temp. máxima en grados centígrados (hora)
DESCASC
Temp. mínima en grados centígrados (hora)
DESCASC
Temp. media en grados centígrados
DESCASC
Racha de viento máxima en m/sg (hora)
DESCASC
Velocidad máxima media en intervalos de 10 minutos(hora)
DESCASC
Precipitaciones diarias en mm
DESCASC
Precipitaciones de 00:00 a 06:00 en mm
DESCASC
Precipitaciones de 06:00 a 12:00 en mm
DESCASC
Precipitaciones de 12:00 a 18:00 en mm
DESCASC
Precipitaciones de 18:00 a 24:00 en mm
DESCASC
03-12-2020 4.3 (22:40) -4.6 (06:00) -0.1 19.72 (23:50) 13.06 (22:50) 2.6 0 0 0 2.6
02-12-2020 6.7 (14:00) -3 (23:10) 1.8 11.67 (16:10) 6.39 (14:40) 0 0 0 0 0
01-12-2020 12.2 (14:30) -1.7 (07:00) 5.2 5.28 (12:30) 3.33 (12:00) 0 0 0 0 0
30-11-2020 12 (15:30) -0.6 (-00:0) 5.7 5 (14:00) 2.78 (14:20) 0 0 0 0 0
29-11-2020 11.8 (16:40) -0.3 (00:00) 5.8 4.17 (23:50) 2.5 (13:00) 0 0 0 0 0
28-11-2020 11 (14:50) 0.4 (00:00) 5.7 5.28 (16:20) 3.61 (16:20) 0 0 0 0 0
27-11-2020 11.7 (16:00) 2.3 (00:00) 7 6.67 (16:50) 3.61 (17:00) 0 0 0 0 0
26-11-2020 11.4 (14:40) 6 (00:00) 8.7 7.22 (12:20) 3.33 (12:20) 0 0 0 0 0
25-11-2020 8.3 (15:50) 4.2 (00:00) 6.3 3.89 (23:00) 2.22 (23:10) 0 0 0 0 0
24-11-2020 10.4 (15:50) -2.3 (-00:0) 4 5.28 (15:00) 3.89 (15:00) 0 0 0 0 0
23-11-2020 14.2 (15:00) -0.6 (-00:0) 6.8 4.17 (16:00) 2.22 (06:40) 0 0 0 0 0
22-11-2020 14 (16:00) -2.3 (-00:0) 5.9 3.61 (14:40) 2.22 (12:20) 0 0 0 0 0
21-11-2020 14.3 (15:10) 0 (00:00) 7.2 9.17 (12:50) 6.11 (12:10) 0 0 0 0 0
20-11-2020 10.6 (15:50) -0.4 (00:00) 5.1 9.17 (12:50) 5 (12:40) 0 0 0 0 0
19-11-2020 14.8 (14:30) 3.6 (00:00) 9.2 9.44 (18:10) 5.83 (16:40) 0 0 0 0 0
18-11-2020 14.8 (15:40) 0.9 (00:00) 7.9 5.56 (12:40) 3.61 (13:30) 0 0 0 0 0
17-11-2020 15.8 (15:40) 0.1 (00:00) 8 5.83 (15:20) 3.89 (15:20) 0 0 0 0 0
16-11-2020 12.5 (15:50) 3.5 (00:00) 8 5.28 (06:40) 3.06 (06:30) 0.2 0 0 0.2 0
15-11-2020 14.4 (15:10) 10.1 (00:00) 12.3 15.56 (13:00) 10.28 (15:40) 4.6 0.4 0.4 0 3.8
14-11-2020 10.8 (23:40) 1 (00:00) 5.9 8.06 (23:40) 5 (23:50) 1 0 0 0.2 0.8
13-11-2020 14.5 (15:20) 3.1 (00:00) 8.8 5.83 (15:00) 3.61 (15:00) 0 0 0 0 0
12-11-2020 13.7 (16:40) 5.1 (00:00) 9.4 5.56 (14:20) 3.89 (14:20) 0 0 0 0 0
11-11-2020 9.6 (15:50) 0.1 (00:00) 4.9 10.28 (14:40) 6.11 (14:00) 0 0 0 0 0
10-11-2020 9.1 (16:00) 1.2 (00:00) 5.2 3.33 (18:20) 2.22 (18:40) 0 0 0 0 0
09-11-2020 11.3 (14:10) 4 (00:00) 7.7 6.67 (12:20) 4.72 (12:20) 1.6 0.8 0 0 0.8
08-11-2020 11.2 (13:10) 6.5 (00:00) 8.8 10.56 (21:30) 6.67 (21:30) 6.2 0.6 0.4 2 3.2
07-11-2020 13.7 (16:20) 9.2 (00:00) 11.4 12.22 (16:00) 9.17 (16:00) 4 3 1 0 0
06-11-2020 13.6 (18:40) 5.7 (00:00) 9.7 25 (21:40) 14.44 (21:40) 5.2 0.2 0 0 5
05-11-2020 12 (14:50) 4.2 (00:00) 8.1 11.94 (00:30) 7.5 (02:40) 0.4 0 0 0 0.4

Gráficas

Temp. máximas Temp. mínimas Temp. medias Precipitaciones Rachas de viento máximas Velocidades máximas media en intervalos de 10 minutos

Datos horarios

Fecha y hora oficial Temperatura (ºC) Velocidad del viento (km/h) Dirección del viento Racha (km/h) Dirección de racha Precipitación (mm) Presión (hPa) Tendencia (hPa) Humedad (%)
2020-12-04 23:00:00 -1.7 4 Noroeste 12 Noroeste 0 -- -- 91
2020-12-04 22:00:00 -1.4 5 Noroeste 19 Oeste 0 -- -- 90
2020-12-04 21:00:00 -1.3 13 Oeste 18 Oeste 0 -- -- 89
2020-12-04 20:00:00 -0.3 14 Noroeste 29 Oeste 0 -- -- 86
2020-12-04 19:00:00 0.3 19 Oeste 26 Oeste 0 -- -- 85
2020-12-04 18:00:00 1 12 Oeste 30 Oeste 0 -- -- 81
2020-12-04 17:00:00 3.6 22 Oeste 37 Oeste 0 -- -- 72
2020-12-04 16:00:00 2.6 24 Oeste 39 Oeste 0 -- -- 77
2020-12-04 15:00:00 3.4 18 Oeste 34 Sudoeste 0 -- -- 72
2020-12-04 14:00:00 3.8 27 Oeste 38 Sudoeste 0 -- -- 71
2020-12-04 13:00:00 3.8 25 Oeste 40 Oeste 0 -- -- 73
2020-12-04 12:00:00 1.7 25 Oeste 45 Oeste 0 -- -- 82
2020-12-04 11:00:00 0.6 18 Oeste 33 Oeste 0 -- -- 86
2020-12-04 10:00:00 -0.5 19 Oeste 40 Oeste 0 -- -- 89
2020-12-04 09:00:00 -1 26 Oeste 45 Oeste 0 -- -- 90
2020-12-04 08:00:00 -0.8 28 Oeste 41 Oeste 0 -- -- 91
2020-12-04 07:00:00 -0.8 22 Oeste 33 Oeste 0 -- -- 90
2020-12-04 06:00:00 -0.2 24 Oeste 45 Oeste 0 -- -- 89
2020-12-04 05:00:00 0.5 23 Oeste 36 Oeste 0 -- -- 91
2020-12-04 04:00:00 1.7 23 Oeste 41 Oeste 0 -- -- 90
2020-12-04 03:00:00 2.6 28 Oeste 40 Oeste 0 -- -- 91
2020-12-04 02:00:00 3.3 13 Noroeste 53 Oeste 0 -- -- 89
2020-12-04 01:00:00 4.4 33 Oeste 60 Sudoeste 0 -- -- 93
2020-12-04 00:00:00 4.3 40 Sudoeste 71 Sudoeste 1.4 -- -- 96
2020-12-03 23:00:00 4.3 44 Sudoeste 67 Sudoeste 0.6 -- -- 95
2020-12-03 22:00:00 4 43 Sudoeste 59 Sudoeste 0.2 -- -- 94
2020-12-03 21:00:00 3.6 36 Sudoeste 57 Sudoeste 0.4 -- -- 94
2020-12-03 20:00:00 3.3 39 Sudoeste 55 Sudoeste 0 -- -- 90
2020-12-03 19:00:00 3.4 24 Sudoeste 36 Sudoeste 0 -- -- 85
2020-12-03 18:00:00 3.5 22 Sudoeste 31 Sudoeste 0 -- -- 82
2020-12-03 17:00:00 3.6 18 Sur 28 Sudoeste 0 -- -- 81
2020-12-03 16:00:00 3.8 17 Sudoeste 32 Sudoeste 0 -- -- 79
2020-12-03 15:00:00 4.1 21 Sudoeste 37 Sudoeste 0 -- -- 78
2020-12-03 14:00:00 3.9 23 Sudoeste 38 Sudoeste 0 -- -- 78
2020-12-03 13:00:00 3.5 22 Sudoeste 35 Sudoeste 0 -- -- 77
2020-12-03 12:00:00 2.5 15 Sudoeste 26 Oeste 0 -- -- 85
2020-12-03 11:00:00 1.4 14 Oeste 23 Oeste 0 -- -- 89
2020-12-03 10:00:00 -0.7 13 Oeste 17 Oeste 0 -- -- 96
2020-12-03 09:00:00 -3.7 5 Sur 8 Sudoeste 0 -- -- 96
2020-12-03 08:00:00 -4.1 2 Nordeste 9 Noroeste 0 -- -- 93
2020-12-03 07:00:00 -3.9 3 Norte 9 Noroeste 0 -- -- 94
2020-12-03 06:00:00 -4.6 4 Nordeste 10 Nordeste 0 -- -- 94
2020-12-03 05:00:00 -4 5 Norte 10 Norte 0 -- -- 92
2020-12-03 04:00:00 -3.8 3 Norte 8 Norte 0 -- -- 92
2020-12-03 03:00:00 -3.4 5 Norte 9 Norte -- -- -- 92
2020-12-03 02:00:00 -3.3 4 Nordeste 11 Noroeste 0 -- -- 91
2020-12-03 01:00:00 -3.1 5 Norte 10 Norte 0 -- -- 91
2020-12-03 00:00:00 -2.8 5 Norte 12 Norte 0 -- -- 90
2020-12-02 23:00:00 -2.8 3 Norte 6 Norte 0 -- -- 91
2020-12-02 22:00:00 -2.4 3 Nordeste 6 Nordeste 0 -- -- 88
2020-12-02 21:00:00 0 7 Sudeste 12 Este 0 -- -- 82
2020-12-02 20:00:00 1.3 0 Calma 13 Nordeste 0 -- -- 76
2020-12-02 19:00:00 2.1 10 Nordeste 15 Nordeste 0 -- -- 72
2020-12-02 18:00:00 3.6 8 Nordeste 26 Nordeste 0 -- -- 66
2020-12-02 17:00:00 5.3 13 Nordeste 42 Nordeste 0 -- -- 58
2020-12-02 16:00:00 6.4 19 Nordeste 38 Nordeste 0 -- -- 54
2020-12-02 15:00:00 6.5 18 Nordeste 38 Nordeste 0 -- -- 55
2020-12-02 14:00:00 6.7 16 Nordeste 39 Nordeste 0 -- -- 51
2020-12-02 13:00:00 5.1 6 Norte 25 Nordeste 0 -- -- 61
2020-12-02 12:00:00 5.1 11 Norte 36 Nordeste 0 -- -- 60
2020-12-02 11:00:00 4.5 18 Nordeste 36 Nordeste 0 -- -- 63
2020-12-02 10:00:00 4.1 19 Nordeste 35 Nordeste 0 -- -- 63
2020-12-02 09:00:00 2.9 3 Sudeste 16 Nordeste 0 -- -- 73
2020-12-02 08:00:00 3 8 Nordeste 15 Nordeste 0 -- -- 77
2020-12-02 07:00:00 0.7 0 Calma 8 Noroeste 0 -- -- 94
2020-12-02 06:00:00 -0.1 2 Norte 8 Nordeste 0 -- -- 95
2020-12-02 05:00:00 0.1 2 Norte 9 Este 0 -- -- 92
2020-12-02 04:00:00 0.6 6 Norte 10 Norte 0 -- -- 92
2020-12-02 03:00:00 0.9 5 Nordeste 8 Nordeste 0 -- -- 89
2020-12-02 02:00:00 2.5 3 Nordeste 7 Nordeste 0 -- -- 86
2020-12-02 01:00:00 3.4 0 Calma 4 Nordeste 0 -- -- 86
2020-12-02 00:00:00 3.4 0 Calma 12 Nordeste 0 -- -- 85
2020-12-01 23:00:00 3.2 6 Nordeste 10 Nordeste 0 -- -- 82
2020-12-01 22:00:00 4.1 4 Norte 9 Norte 0 -- -- 79
2020-12-01 21:00:00 5.3 0 Calma 8 Sudeste 0 -- -- 75
2020-12-01 20:00:00 5.2 6 Sudeste 9 Sudeste 0 -- -- 79
2020-12-01 19:00:00 5.3 4 Sudeste 6 Este 0 -- -- 78
2020-12-01 18:00:00 7 0 Calma 7 Sur 0 -- -- 71
2020-12-01 17:00:00 9.6 4 Este 14 Sudeste 0 -- -- 64
2020-12-01 16:00:00 11.3 4 Sur 16 Este 0 -- -- 57
2020-12-01 15:00:00 12.2 8 Nordeste 18 Este 0 -- -- 48
2020-12-01 14:00:00 11.5 9 Este 18 Este 0 -- -- 51
2020-12-01 13:00:00 11 9 Este 19 Nordeste 0 -- -- 50
2020-12-01 12:00:00 10 12 Nordeste 18 Nordeste 0 -- -- 48
2020-12-01 11:00:00 6.3 0 Calma 10 Noroeste 0 -- -- 71
2020-12-01 10:00:00 4.1 9 Nordeste 15 Norte 0 -- -- 66
2020-12-01 09:00:00 0.4 4 Norte 10 Norte 0 -- -- 78
2020-12-01 08:00:00 -1 4 Norte 13 Este 0 -- -- 82
2020-12-01 07:00:00 -1.7 2 Norte 9 Nordeste 0 -- -- 82
2020-12-01 06:00:00 -0.7 6 Norte 10 Norte 0 -- -- 76
2020-12-01 05:00:00 -0.2 8 Norte 14 Norte 0 -- -- 78
2020-12-01 04:00:00 -1.2 6 Norte 12 Nordeste 0 -- -- 89
2020-12-01 03:00:00 -1 5 Norte 10 Noroeste 0 -- -- 96
2020-12-01 02:00:00 -1.6 3 Nordeste 9 Norte 0 -- -- 96
2020-12-01 01:00:00 0.1 5 Norte 9 Norte 0 -- -- 94
2020-12-01 00:00:00 1.1 4 Norte 14 Norte 0 -- -- 92
2020-11-30 23:00:00 1.6 4 Norte 9 Noroeste 0 -- -- 96
2020-11-30 22:00:00 2.6 0 Calma 8 Nordeste 0 -- -- 94
2020-11-30 21:00:00 2.4 4 Norte 8 Nordeste 0 -- -- 94
2020-11-30 20:00:00 4.3 2 Norte 8 Noroeste 0 -- -- 88
2020-11-30 19:00:00 4.3 0 Calma 5 Norte 0 -- -- 89
2020-11-30 18:00:00 7.4 3 Nordeste 7 Este 0 -- -- 82
2020-11-30 17:00:00 10.9 0 Calma 12 Nordeste 0 -- -- 68
2020-11-30 16:00:00 11.8 7 Este 17 Nordeste 0 -- -- 66
2020-11-30 15:00:00 11.7 9 Este 17 Nordeste 0 -- -- 66
2020-11-30 14:00:00 11.3 8 Este 18 Este 0 -- -- 70
2020-11-30 13:00:00 10.2 5 Este 15 Sudeste 0 -- -- 76
2020-11-30 12:00:00 7.5 6 Noroeste 12 Norte 0 -- -- 93
2020-11-30 11:00:00 3 4 Noroeste 10 Norte 0 -- -- 98
2020-11-30 10:00:00 1.1 3 Norte 9 Noroeste 0 -- -- 99
2020-11-30 09:00:00 -0.3 3 Norte 9 Nordeste 0 -- -- 97
2020-11-30 08:00:00 -0.5 3 Norte 7 Nordeste 0 -- -- 98
2020-11-30 07:00:00 0.6 2 Noroeste 16 Norte 0 -- -- 96
2020-11-30 06:00:00 0.2 3 Norte 15 Norte 0 -- -- 97
2020-11-30 05:00:00 -0.5 0 Calma 8 Norte 0 -- -- 97
2020-11-30 04:00:00 0.1 5 Norte 10 Noroeste 0 -- -- 97
2020-11-30 03:00:00 0.2 3 Norte 12 Norte 0 -- -- 96
2020-11-30 02:00:00 0.8 5 Norte 12 Nordeste 0 -- -- 96
2020-11-30 01:00:00 1 6 Norte 9 Norte 0 -- -- 96
2020-11-30 00:00:00 1.5 5 Norte 15 Norte 0 -- -- 96
2020-11-29 23:00:00 1.7 4 Norte 13 Nordeste 0 -- -- 94
2020-11-29 22:00:00 2.3 4 Norte 9 Noroeste 0 -- -- 93
2020-11-29 21:00:00 2.8 4 Norte 12 Norte 0 -- -- 94
2020-11-29 20:00:00 3 2 Norte 9 Norte 0 -- -- 94
2020-11-29 19:00:00 4.1 0 Calma 5 Este 0 -- -- 92
2020-11-29 18:00:00 6.3 4 Sudeste 5 Sudeste 0 -- -- 86
2020-11-29 17:00:00 11 2 Sudeste 7 Sur 0 -- -- 73
2020-11-29 16:00:00 11.4 0 Calma 7 Sur 0 -- -- 67
2020-11-29 15:00:00 11.1 2 Sudeste 9 Sur 0 -- -- 75
2020-11-29 14:00:00 9.7 4 Este 11 Sur 0 -- -- 74
2020-11-29 13:00:00 8.9 9 Sudoeste 13 Sudoeste 0 -- -- 89
2020-11-29 12:00:00 6.8 5 Sudoeste 8 Sudoeste 0 -- -- 100
2020-11-29 11:00:00 3.9 2 Norte 7 Noroeste 0 -- -- 100
2020-11-29 10:00:00 0.9 4 Noroeste 7 Noroeste 0 -- -- 100
2020-11-29 09:00:00 0.1 4 Norte 13 Norte 0 -- -- 99
2020-11-29 08:00:00 0.3 5 Norte 12 Norte 0 -- -- 99
2020-11-29 07:00:00 -0.1 0 Calma 8 Norte 0 -- -- 99
2020-11-29 06:00:00 1.1 4 Norte 9 Norte 0 -- -- 100
2020-11-29 05:00:00 1 0 Calma 13 Norte 0 -- -- 99
2020-11-29 04:00:00 0.4 4 Norte 8 Norte 0 -- -- 99
2020-11-29 03:00:00 0.9 3 Norte 11 Norte 0 -- -- 98
2020-11-29 02:00:00 1 3 Norte 8 Nordeste 0 -- -- 98
2020-11-29 01:00:00 1.7 3 Norte 8 Nordeste 0 -- -- 96
2020-11-29 00:00:00 3.6 3 Nordeste 8 Este 0 -- -- 96
2020-11-28 23:00:00 3.6 3 Nordeste 8 Norte 0 -- -- 97
2020-11-28 22:00:00 3 2 Noroeste 8 Nordeste 0 -- -- 98
2020-11-28 21:00:00 2.8 3 Nordeste 5 Nordeste 0 -- -- 95
2020-11-28 20:00:00 4.3 3 Este 5 Este 0 -- -- 92
2020-11-28 19:00:00 6.8 0 Calma 7 Sudeste 0 -- -- 87
2020-11-28 18:00:00 8.2 4 Sudeste 9 Sudeste 0 -- -- 84
2020-11-28 17:00:00 9.2 5 Sudeste 19 Sur 0 -- -- 79
2020-11-28 16:00:00 9.4 5 Sudeste 9 Sudeste 0 -- -- 81
2020-11-28 15:00:00 10.9 5 Sur 11 Sur 0 -- -- 76
2020-11-28 14:00:00 9.5 6 Sur 9 Sudoeste 0 -- -- 90
2020-11-28 13:00:00 6.4 3 Noroeste 9 Noroeste 0 -- -- 100
2020-11-28 12:00:00 4.4 4 Noroeste 11 Noroeste 0 -- -- 100
2020-11-28 11:00:00 2.8 5 Noroeste 11 Oeste 0 -- -- 100
2020-11-28 10:00:00 1.3 2 Noroeste 9 Noroeste 0 -- -- 100
2020-11-28 09:00:00 0.6 5 Norte 9 Norte 0 -- -- 100
2020-11-28 08:00:00 0.8 5 Norte 15 Noroeste 0 -- -- 99
2020-11-28 07:00:00 2.5 7 Norte 12 Noroeste 0 -- -- 99
2020-11-28 06:00:00 3.4 5 Norte 13 Noroeste 0 -- -- 100
2020-11-28 05:00:00 2.7 4 Norte 13 Norte 0 -- -- 99
2020-11-28 04:00:00 2 4 Norte 8 Noroeste 0 -- -- 98
2020-11-28 03:00:00 1.5 2 Noroeste 8 Norte 0 -- -- 97
2020-11-28 02:00:00 1.9 3 Norte 6 Norte 0 -- -- 98
2020-11-28 01:00:00 1.5 2 Norte 7 Nordeste 0 -- -- 97
2020-11-28 00:00:00 2.3 0 Calma 6 Norte 0 -- -- 96
2020-11-27 23:00:00 3.5 0 Calma 6 Este 0 -- -- 94
2020-11-27 22:00:00 4.4 4 Nordeste 8 Nordeste 0 -- -- 93
2020-11-27 21:00:00 5.9 2 Norte 8 Nordeste 0 -- -- 90
2020-11-27 20:00:00 6.8 4 Nordeste 10 Este 0 -- -- 88
2020-11-27 19:00:00 7.7 6 Nordeste 11 Este 0 -- -- 86
2020-11-27 18:00:00 9.2 3 Este 19 Nordeste 0 -- -- 82
2020-11-27 17:00:00 11.2 13 Nordeste 24 Este 0 -- -- 74
2020-11-27 16:00:00 11.7 7 Este 18 Este 0 -- -- 74
2020-11-27 15:00:00 11 6 Este 13 Este 0 -- -- 76
2020-11-27 14:00:00 10.1 4 Este 17 Nordeste 0 -- -- 80
2020-11-27 13:00:00 10.2 8 Sudeste 18 Este 0 -- -- 82
2020-11-27 12:00:00 9.5 6 Este 13 Nordeste 0 -- -- 85
2020-11-27 11:00:00 8.1 5 Este 13 Este 0 -- -- 91
2020-11-27 10:00:00 5.7 6 Noroeste 10 Noroeste 0 -- -- 98
2020-11-27 09:00:00 3.8 5 Noroeste 9 Norte 0 -- -- 98
2020-11-27 08:00:00 3.9 4 Noroeste 14 Nordeste 0 -- -- 98
2020-11-27 07:00:00 3.4 2 Norte 9 Este 0 -- -- 98
2020-11-27 06:00:00 4 5 Nordeste 10 Nordeste 0 -- -- 96
2020-11-27 05:00:00 4.5 3 Norte 15 Nordeste 0 -- -- 95
2020-11-27 04:00:00 5.1 5 Norte 21 Nordeste 0 -- -- 93
2020-11-27 03:00:00 5.4 11 Nordeste 15 Nordeste 0 -- -- 94
2020-11-27 02:00:00 5.5 6 Nordeste 10 Nordeste 0 -- -- 93
2020-11-27 01:00:00 6.5 0 Calma 13 Nordeste 0 -- -- 91
2020-11-27 00:00:00 6.6 8 Nordeste 13 Nordeste 0 -- -- 92
2020-11-26 23:00:00 7.1 4 Nordeste 12 Nordeste 0 -- -- 90
2020-11-26 22:00:00 7.1 6 Nordeste 12 Nordeste 0 -- -- 91
2020-11-26 21:00:00 7.6 4 Norte 16 Nordeste 0 -- -- 87
2020-11-26 20:00:00 8.1 9 Este 16 Este 0 -- -- 86
2020-11-26 19:00:00 8.6 8 Nordeste 14 Nordeste 0 -- -- 85
2020-11-26 18:00:00 9 6 Nordeste 15 Este 0 -- -- 84
2020-11-26 17:00:00 10.4 8 Este 15 Este 0 -- -- 79
2020-11-26 16:00:00 10.9 8 Sudeste 17 Sudeste 0 -- -- 75
2020-11-26 15:00:00 11.2 8 Sudeste 18 Este 0 -- -- 74
2020-11-26 14:00:00 10.8 7 Este 17 Sudeste 0 -- -- 78
2020-11-26 13:00:00 9.3 8 Este 26 Sudeste 0 -- -- 81
2020-11-26 12:00:00 8.5 4 Sudeste 16 Este 0 -- -- 83
2020-11-26 11:00:00 7.6 6 Este 22 Este 0 -- -- 83
2020-11-26 10:00:00 6.9 7 Este 16 Este 0 -- -- 86
2020-11-26 09:00:00 6.6 9 Este 15 Este 0 -- -- 86
2020-11-26 08:00:00 6.4 6 Este 15 Este 0 -- -- 88
2020-11-26 07:00:00 6.6 8 Este 19 Este 0 -- -- 87
2020-11-26 06:00:00 6.8 8 Nordeste 15 Nordeste 0 -- -- 87
2020-11-26 05:00:00 7.1 6 Este 11 Este 0 -- -- 87
2020-11-26 04:00:00 7 6 Este 14 Sudeste 0 -- -- 88
2020-11-26 03:00:00 6.6 6 Este 12 Sudeste 0 -- -- 89
2020-11-26 02:00:00 6.5 4 Este 10 Este 0 -- -- 88
2020-11-26 01:00:00 6.2 6 Este 13 Este 0 -- -- 88
2020-11-26 00:00:00 6 7 Nordeste 13 Este 0 -- -- 87
2020-11-25 23:00:00 5.7 7 Este 14 Este 0 -- -- 87
2020-11-25 22:00:00 5.6 3 Este 8 Este 0 -- -- 86
2020-11-25 21:00:00 5.6 5 Este 10 Este 0 -- -- 86
2020-11-25 20:00:00 6.4 0 Calma 13 Este 0 -- -- 83
2020-11-25 19:00:00 7.2 8 Este 14 Nordeste 0 -- -- 84
2020-11-25 18:00:00 7.5 2 Norte 7 Nordeste 0 -- -- 85
2020-11-25 17:00:00 8 4 Norte 10 Noroeste 0 -- -- 82
2020-11-25 16:00:00 8.3 4 Norte 8 Noroeste 0 -- -- 82
2020-11-25 15:00:00 8.2 2 Noroeste 5 Oeste 0 -- -- 81
2020-11-25 14:00:00 8 2 Sur 8 Sudoeste 0 -- -- 84
2020-11-25 13:00:00 7 6 Sur 12 Sur 0 -- -- 87
2020-11-25 12:00:00 6.1 6 Sur 10 Sur 0 -- -- 93
2020-11-25 11:00:00 5.1 4 Sudeste 10 Sur 0 -- -- 95
2020-11-25 10:00:00 4.6 4 Sur 8 Sur 0 -- -- 95
2020-11-25 09:00:00 4.3 5 Sur 8 Sudeste 0 -- -- 95
2020-11-25 08:00:00 4.3 3 Sudeste 8 Sudeste 0 -- -- 94
2020-11-25 07:00:00 4.3 4 Sudeste 8 Sur 0 -- -- 94
2020-11-25 06:00:00 4.4 0 Calma 8 Sur 0 -- -- 94
2020-11-25 05:00:00 4.4 7 Sur 9 Sur 0 -- -- 94
2020-11-25 04:00:00 4.4 4 Sur 9 Sur 0 -- -- 95
2020-11-25 03:00:00 4.4 3 Sur 8 Sudoeste 0 -- -- 94
2020-11-25 02:00:00 5.1 3 Sur 9 Sudoeste 0 -- -- 93
2020-11-25 01:00:00 5.7 4 Sur 8 Sudeste 0 -- -- 93
2020-11-25 00:00:00 5.7 6 Sur 8 Sur 0 -- -- 92
2020-11-24 23:00:00 5.7 3 Sur 10 Sur 0 -- -- 93
2020-11-24 22:00:00 5.2 5 Sur 9 Sudoeste 0 -- -- 94
2020-11-24 21:00:00 5.4 5 Sur 7 Sur 0 -- -- 89
2020-11-24 20:00:00 6.6 4 Sur 13 Sur 0 -- -- 90
2020-11-24 19:00:00 7 5 Sur 11 Sur 0 -- -- 87
2020-11-24 18:00:00 7.6 8 Sur 13 Sur 0 -- -- 83
2020-11-24 17:00:00 9.2 11 Sur 17 Sudoeste 0 -- -- 79
2020-11-24 16:00:00 10.4 12 Sur 18 Sudoeste 0 -- -- 74
2020-11-24 15:00:00 10.1 14 Sudoeste 19 Sur 0 -- -- 73
2020-11-24 14:00:00 9.7 12 Sudoeste 18 Sudoeste 0 -- -- 74
2020-11-24 13:00:00 9 11 Sudoeste 15 Sudoeste 0 -- -- 77
2020-11-24 12:00:00 6.3 7 Sur 10 Sur 0 -- -- 85
2020-11-24 11:00:00 2.6 4 Sur 16 Sudeste 0 -- -- 94
2020-11-24 10:00:00 -0.7 0 Calma 6 Noroeste 0 -- -- 93
2020-11-24 09:00:00 -1.9 2 Norte 6 Noroeste 0 -- -- 94
2020-11-24 08:00:00 -2 2 Nordeste 7 Noroeste 0 -- -- 94
2020-11-24 07:00:00 -2.1 2 Norte 5 Noroeste 0 -- -- 95
2020-11-24 06:00:00 -1.8 3 Norte 6 Nordeste 0 -- -- 95
2020-11-24 05:00:00 -1.3 3 Norte 5 Norte 0 -- -- 94
2020-11-24 04:00:00 -0.8 4 Norte 7 Norte 0 -- -- 94
2020-11-24 03:00:00 -1 0 Calma 8 Norte 0 -- -- 91
2020-11-24 02:00:00 -0.7 2 Norte 7 Norte 0 -- -- 91
2020-11-24 01:00:00 0 3 Norte 8 Norte 0 -- -- 90
2020-11-24 00:00:00 0.6 3 Norte 9 Norte 0 -- -- 87
2020-11-23 23:00:00 1.4 4 Norte 9 Norte 0 -- -- 87
2020-11-23 22:00:00 2.5 4 Norte 12 Nordeste 0 -- -- 81
2020-11-23 21:00:00 2.9 4 Norte 8 Noroeste 0 -- -- 81
2020-11-23 20:00:00 3.2 3 Norte 6 Norte 0 -- -- 73
2020-11-23 19:00:00 5.2 0 Calma 8 Este 0 -- -- 72
2020-11-23 18:00:00 7.3 6 Este 8 Este 0 -- -- 71
2020-11-23 17:00:00 11.1 4 Nordeste 5 Nordeste 0 -- -- 62
2020-11-23 16:00:00 13.3 5 Este 15 Nordeste 0 -- -- 48
2020-11-23 15:00:00 14.2 5 Nordeste 12 Este 0 -- -- 46
2020-11-23 14:00:00 13.4 3 Noroeste 9 Oeste 0 -- -- 52
2020-11-23 13:00:00 10.9 2 Oeste 6 Oeste 0 -- -- 66
2020-11-23 12:00:00 8.5 2 Noroeste 5 Norte 0 -- -- 80
2020-11-23 11:00:00 4.3 3 Noroeste 8 Noroeste 0 -- -- 91
2020-11-23 10:00:00 1 5 Norte 12 Norte 0 -- -- 95
2020-11-23 09:00:00 -0.4 5 Norte 12 Noroeste 0 -- -- 95
2020-11-23 08:00:00 -0.5 5 Norte 13 Norte 0 -- -- 95
2020-11-23 07:00:00 -0.2 5 Norte 14 Norte 0 -- -- 95
2020-11-23 06:00:00 -0.2 5 Norte 13 Noroeste 0 -- -- 95
2020-11-23 05:00:00 0.3 6 Norte 12 Norte 0 -- -- 94
2020-11-23 04:00:00 0.5 5 Norte 12 Norte 0 -- -- 95
2020-11-23 03:00:00 0.1 2 Norte 13 Norte 0 -- -- 95
2020-11-23 02:00:00 0 3 Norte 9 Norte 0 -- -- 94
2020-11-23 01:00:00 0.9 5 Norte 14 Norte 0 -- -- 94
2020-11-23 00:00:00 1.3 7 Norte 12 Noroeste 0 -- -- 94
2020-11-22 23:00:00 1.6 4 Norte 10 Nordeste 0 -- -- 92
2020-11-22 22:00:00 1.8 0 Calma 9 Noroeste 0 -- -- 90
2020-11-22 21:00:00 2.7 4 Norte 8 Noroeste 0 -- -- 90
2020-11-22 20:00:00 3.9 5 Norte 10 Norte 0 -- -- 85
2020-11-22 19:00:00 5 4 Este 6 Sudeste 0 -- -- 82
2020-11-22 18:00:00 9.1 5 Sudeste 8 Sudeste 0 -- -- 69
2020-11-22 17:00:00 13.5 4 Sur 9 Sur 0 -- -- 60
2020-11-22 16:00:00 14 6 Sur 10 Sudoeste 0 -- -- 58
2020-11-22 15:00:00 13.2 7 Sur 13 Sur 0 -- -- 59
2020-11-22 14:00:00 11.8 5 Sur 12 Sur 0 -- -- 60
2020-11-22 13:00:00 9.8 8 Sur 13 Sur 0 -- -- 65
2020-11-22 12:00:00 7.3 6 Sur 8 Sur 0 -- -- 73
2020-11-22 11:00:00 3.6 3 Oeste 6 Noroeste 0 -- -- 75
2020-11-22 10:00:00 0.1 3 Nordeste 7 Norte 0 -- -- 85
2020-11-22 09:00:00 -2.1 2 Norte 6 Norte 0 -- -- 89
2020-11-22 08:00:00 -2 3 Norte 10 Nordeste 0 -- -- 86
2020-11-22 07:00:00 -1.9 5 Norte 10 Norte 0 -- -- 89
2020-11-22 06:00:00 -2.3 2 Norte 7 Norte 0 -- -- 88
2020-11-22 05:00:00 -1.7 3 Norte 8 Norte 0 -- -- 87
2020-11-22 04:00:00 -0.9 3 Norte 10 Norte 0 -- -- 85
2020-11-22 03:00:00 -1.4 3 Norte 8 Norte 0 -- -- 87
2020-11-22 02:00:00 -1 4 Norte 8 Norte 0 -- -- 86
2020-11-22 01:00:00 0 3 Norte 13 Norte 0 -- -- 81
2020-11-22 00:00:00 0.1 4 Norte 8 Norte 0 -- -- 81
2020-11-21 23:00:00 1.1 5 Norte 12 Norte 0 -- -- 76
2020-11-21 22:00:00 1.4 4 Norte 10 Nordeste 0 -- -- 75
2020-11-21 21:00:00 3.3 3 Norte 11 Nordeste 0 -- -- 67
2020-11-21 20:00:00 5.7 4 Noroeste 14 Este 0 -- -- 57
2020-11-21 19:00:00 6.3 10 Nordeste 13 Nordeste 0 -- -- 54
2020-11-21 18:00:00 8.4 8 Nordeste 11 Este 0 -- -- 55
2020-11-21 17:00:00 13.1 4 Nordeste 16 Nordeste 0 -- -- 37
2020-11-21 16:00:00 14.2 9 Nordeste 18 Nordeste 0 -- -- 33
2020-11-21 15:00:00 14.2 9 Este 21 Nordeste 0 -- -- 30
2020-11-21 14:00:00 13.8 12 Este 29 Este 0 -- -- 32
2020-11-21 13:00:00 13.5 19 Nordeste 33 Nordeste 0 -- -- 27
2020-11-21 12:00:00 12.5 19 Nordeste 31 Nordeste 0 -- -- 27
2020-11-21 11:00:00 10.3 12 Nordeste 25 Nordeste 0 -- -- 34
2020-11-21 10:00:00 8 15 Nordeste 30 Nordeste 0 -- -- 34
2020-11-21 09:00:00 2.2 4 Norte 19 Nordeste 0 -- -- 58
2020-11-21 08:00:00 0.6 11 Nordeste 18 Nordeste 0 -- -- 74
2020-11-21 07:00:00 0.3 4 Norte 10 Noroeste 0 -- -- 83
2020-11-21 06:00:00 1 2 Norte 12 Norte 0 -- -- 74
2020-11-21 05:00:00 0.9 3 Nordeste 15 Nordeste 0 -- -- 77
2020-11-21 04:00:00 2.2 5 Nordeste 14 Nordeste 0 -- -- 73
2020-11-21 03:00:00 2.4 13 Nordeste 18 Nordeste 0 -- -- 82
2020-11-21 02:00:00 1.1 5 Nordeste 9 Este 0 -- -- 96
2020-11-21 01:00:00 2 0 Calma 12 Nordeste 0 -- -- 92
2020-11-21 00:00:00 2.2 2 Nordeste 8 Nordeste 0 -- -- 94
2020-11-20 23:00:00 3.1 0 Calma 11 Nordeste 0 -- -- 92
2020-11-20 22:00:00 3.5 5 Este 10 Este 0 -- -- 91
2020-11-20 21:00:00 4.8 3 Sudeste 22 Este 0 -- -- 87
2020-11-20 20:00:00 5.7 16 Nordeste 27 Nordeste 0 -- -- 86
2020-11-20 19:00:00 6 9 Este 18 Este 0 -- -- 83
2020-11-20 18:00:00 7.4 12 Este 22 Este 0 -- -- 77
2020-11-20 17:00:00 9.4 10 Este 21 Este 0 -- -- 67
2020-11-20 16:00:00 10.5 9 Este 21 Nordeste 0 -- -- 64
2020-11-20 15:00:00 10 12 Nordeste 21 Este 0 -- -- 62
2020-11-20 14:00:00 9.5 12 Nordeste 25 Nordeste 0 -- -- 68
2020-11-20 13:00:00 8 14 Este 33 Sudeste 0 -- -- 76
2020-11-20 12:00:00 7.1 13 Este 32 Este 0 -- -- 77
2020-11-20 11:00:00 5.6 15 Nordeste 28 Este 0 -- -- 84
2020-11-20 10:00:00 4.1 10 Nordeste 23 Este 0 -- -- 95
2020-11-20 09:00:00 2.1 3 Nordeste 8 Nordeste 0 -- -- 99
2020-11-20 08:00:00 1.8 0 Calma 12 Nordeste 0 -- -- 99
2020-11-20 07:00:00 0 5 Nordeste 10 Nordeste 0 -- -- 99
2020-11-20 06:00:00 -0.4 3 Norte 6 Noroeste 0 -- -- 97
2020-11-20 05:00:00 1.2 4 Norte 8 Norte 0 -- -- 99
2020-11-20 04:00:00 0.7 3 Norte 8 Norte 0 -- -- 98
2020-11-20 03:00:00 0.9 0 Calma 5 Nordeste 0 -- -- 97
2020-11-20 02:00:00 2 0 Calma 6 Nordeste 0 -- -- 97
2020-11-20 01:00:00 3.5 0 Calma 10 Nordeste 0 -- -- 96
2020-11-20 00:00:00 3.7 2 Este 7 Nordeste 0 -- -- 95
2020-11-19 23:00:00 4.7 0 Calma 13 Nordeste 0 -- -- 94
2020-11-19 22:00:00 5.3 5 Nordeste 17 Nordeste 0 -- -- 93
2020-11-19 21:00:00 6 6 Este 17 Nordeste 0 -- -- 92
2020-11-19 20:00:00 6.2 9 Nordeste 24 Nordeste 0 -- -- 92
2020-11-19 19:00:00 7.1 15 Este 34 Este 0 -- -- 90
2020-11-19 18:00:00 8.5 18 Este 32 Este 0 -- -- 88
2020-11-19 17:00:00 10.5 17 Nordeste 31 Este 0 -- -- 85
2020-11-19 16:00:00 13.6 7 Este 13 Este 0 -- -- 81
2020-11-19 15:00:00 14.5 2 Sudeste 15 Sudeste 0 -- -- 80
2020-11-19 14:00:00 14.2 3 Sudoeste 12 Este 0 -- -- 79
2020-11-19 13:00:00 13 6 Este 16 Este 0 -- -- 87
2020-11-19 12:00:00 11.7 8 Nordeste 21 Este 0 -- -- 87
2020-11-19 11:00:00 8.2 2 Oeste 6 Noroeste 0 -- -- 99
2020-11-19 10:00:00 5.7 2 Norte 10 Noroeste 0 -- -- 100
2020-11-19 09:00:00 3.7 5 Norte 18 Norte 0 -- -- 98
2020-11-19 08:00:00 4 6 Norte 11 Norte 0 -- -- 99
2020-11-19 07:00:00 4.1 9 Norte 14 Norte 0 -- -- 98
2020-11-19 06:00:00 3.8 9 Norte 15 Norte 0 -- -- 99
2020-11-19 05:00:00 3.8 5 Norte 10 Norte 0 -- -- 99
2020-11-19 04:00:00 4.2 6 Nordeste 9 Norte 0 -- -- 99
2020-11-19 03:00:00 4.4 5 Norte 13 Noroeste 0 -- -- 99
2020-11-19 02:00:00 4.3 2 Norte 11 Nordeste 0 -- -- 98
2020-11-19 01:00:00 4.8 10 Nordeste 11 Nordeste 0 -- -- 98
2020-11-19 00:00:00 5.4 0 Calma 8 Norte 0 -- -- 97
2020-11-18 23:00:00 6.3 5 Norte 12 Norte 0 -- -- 97
2020-11-18 22:00:00 6.4 0 Calma 10 Nordeste 0 -- -- 96
2020-11-18 21:00:00 7.6 3 Norte 8 Norte 0 -- -- 97
2020-11-18 20:00:00 7.9 2 Norte 4 Norte 0 -- -- 96
2020-11-18 19:00:00 9.7 0 Calma 9 Sur 0 -- -- 93
2020-11-18 18:00:00 11.6 0 Calma 8 Sudoeste 0 -- -- 89
2020-11-18 17:00:00 14.3 7 Sudoeste 16 Sudoeste 0 -- -- 80
2020-11-18 16:00:00 14.7 11 Sudoeste 17 Sudoeste 0 -- -- 77
2020-11-18 15:00:00 14.6 10 Sudoeste 18 Sudoeste 0 -- -- 78
2020-11-18 14:00:00 13.6 13 Oeste 20 Oeste 0 -- -- 81
2020-11-18 13:00:00 13.1 13 Sudoeste 20 Oeste 0 -- -- 86
2020-11-18 12:00:00 11.6 10 Oeste 14 Oeste 0 -- -- 95
2020-11-18 11:00:00 8.2 2 Sudoeste 5 Noroeste 0 -- -- 100
2020-11-18 10:00:00 5 2 Noroeste 7 Nordeste 0 -- -- 99
2020-11-18 09:00:00 3.5 0 Calma 6 Nordeste 0 -- -- 99
2020-11-18 08:00:00 2.3 0 Calma 9 Norte 0 -- -- 99
2020-11-18 07:00:00 1.1 0 Calma 8 Norte 0 -- -- 97
2020-11-18 06:00:00 1.4 3 Norte 8 Norte 0 -- -- 97
2020-11-18 05:00:00 2.1 4 Norte 10 Norte 0 -- -- 97
2020-11-18 04:00:00 1.6 0 Calma 12 Norte 0 -- -- 96
2020-11-18 03:00:00 1.9 2 Nordeste 9 Nordeste 0 -- -- 94
2020-11-18 02:00:00 2.5 5 Nordeste 9 Norte 0 -- -- 95
2020-11-18 01:00:00 3 4 Norte 10 Nordeste 0 -- -- 94
2020-11-18 00:00:00 3.5 5 Norte 10 Norte 0 -- -- 95
2020-11-17 23:00:00 4 4 Norte 11 Nordeste 0 -- -- 94
2020-11-17 22:00:00 5 7 Norte 12 Norte 0 -- -- 94
2020-11-17 21:00:00 5.3 5 Norte 11 Norte 0 -- -- 94
2020-11-17 20:00:00 5.5 0 Calma 2 Nordeste 0 -- -- 94
2020-11-17 19:00:00 8.6 0 Calma 8 Sur 0 -- -- 86
2020-11-17 18:00:00 12.5 7 Sur 10 Sudoeste 0 -- -- 75
2020-11-17 17:00:00 15.1 9 Sudoeste 17 Oeste 0 -- -- 63
2020-11-17 16:00:00 15.7 10 Oeste 21 Oeste 0 -- -- 53
2020-11-17 15:00:00 15.5 12 Sudoeste 21 Sur 0 -- -- 71
2020-11-17 14:00:00 14.5 11 Sudoeste 19 Sudoeste 0 -- -- 80
2020-11-17 13:00:00 12.6 10 Sudoeste 16 Sur 0 -- -- 83
2020-11-17 12:00:00 9.5 9 Sur 13 Sur 0 -- -- 100
2020-11-17 11:00:00 6.2 7 Sur 9 Sur 0 -- -- 100
2020-11-17 10:00:00 2.6 0 Calma 6 Norte 0 -- -- 100
2020-11-17 09:00:00 0.3 0 Calma 8 Nordeste 0 -- -- 99
2020-11-17 08:00:00 0.6 3 Norte 10 Norte 0 -- -- 98
2020-11-17 07:00:00 1.6 5 Norte 10 Norte 0 -- -- 98
2020-11-17 06:00:00 1.3 2 Norte 14 Norte 0 -- -- 98
2020-11-17 05:00:00 2.2 5 Norte 11 Norte 0 -- -- 99
2020-11-17 04:00:00 1.7 0 Calma 8 Norte 0 -- -- 98
2020-11-17 03:00:00 2.5 5 Norte 10 Norte 0 -- -- 99
2020-11-17 02:00:00 2.6 3 Norte 10 Noroeste 0 -- -- 99
2020-11-17 01:00:00 3 4 Norte 9 Noroeste 0 -- -- 98
2020-11-17 00:00:00 3.6 3 Norte 8 Noroeste 0 -- -- 98
2020-11-16 23:00:00 3.9 3 Norte 11 Norte 0 -- -- 97
2020-11-16 22:00:00 4.7 0 Calma 2 Norte 0 -- -- 97
2020-11-16 21:00:00 5 0 Calma 0 Calma 0 -- -- 96
2020-11-16 20:00:00 5.8 0 Calma 0 Calma 0 -- -- 96
2020-11-16 19:00:00 6.8 0 Calma 0 Calma 0 -- -- 94
2020-11-16 18:00:00 9.8 0 Calma 0 Calma 0 -- -- 86
2020-11-16 17:00:00 12.2 0 Calma 0 Calma 0 -- -- 82
2020-11-16 16:00:00 12.5 0 Calma 0 Calma 0.2 -- -- 74
2020-11-16 15:00:00 12.1 0 Calma 8 Sur 0 -- -- 74
2020-11-16 14:00:00 11.8 4 Sudoeste 10 Sudoeste 0 -- -- 78
2020-11-16 13:00:00 11.4 4 Sur 17 Sudeste 0 -- -- 89
2020-11-16 12:00:00 9.7 4 Nordeste 12 Nordeste 0 -- -- 90
2020-11-16 11:00:00 9 6 Este 14 Este 0 -- -- 94
2020-11-16 10:00:00 7.9 2 Este 12 Nordeste 0 -- -- 98
2020-11-16 09:00:00 7.5 3 Norte 9 Noroeste 0 -- -- 97
2020-11-16 08:00:00 7.6 3 Norte 17 Este 0 -- -- 99
2020-11-16 07:00:00 7.7 11 Este 19 Este 0 -- -- 100
2020-11-16 06:00:00 7.8 6 Nordeste 13 Nordeste 0 -- -- 100
2020-11-16 05:00:00 7.5 0 Calma 6 Noroeste 0 -- -- 100
2020-11-16 04:00:00 7.4 5 Nordeste 12 Este 0 -- -- 100
2020-11-16 03:00:00 7.4 2 Norte 10 Norte 0 -- -- 99
2020-11-16 02:00:00 7.3 4 Este 6 Este 0 -- -- 98
2020-11-16 01:00:00 9.1 0 Calma 13 Noroeste 0 -- -- 95
2020-11-16 00:00:00 10.2 3 Noroeste 9 Sudoeste 0 -- -- 94
2020-11-15 23:00:00 11.4 6 Sudoeste 20 Oeste 0 -- -- 95
2020-11-15 22:00:00 11.7 15 Oeste 24 Oeste 0.4 -- -- 95
2020-11-15 21:00:00 12.4 16 Oeste 29 Sudoeste 1.8 -- -- 98
2020-11-15 20:00:00 12.7 19 Sudoeste 31 Oeste 0.8 -- -- 97
2020-11-15 19:00:00 12.8 20 Oeste 38 Sudoeste 0.8 -- -- 96
2020-11-15 18:00:00 13.1 26 Sudoeste 44 Sudoeste 0 -- -- 94
2020-11-15 17:00:00 13.5 27 Sudoeste 51 Sudoeste 0 -- -- 92
2020-11-15 16:00:00 14 35 Sudoeste 56 Sudoeste 0 -- -- 90
2020-11-15 15:00:00 14.3 35 Sudoeste 54 Sudoeste 0 -- -- 89
2020-11-15 14:00:00 13.9 29 Sudoeste 52 Oeste 0 -- -- 91
2020-11-15 13:00:00 14.1 35 Sudoeste 56 Sudoeste 0 -- -- 89
2020-11-15 12:00:00 13 25 Sudoeste 41 Sudoeste 0.2 -- -- 95
2020-11-15 11:00:00 12.6 25 Sudoeste 39 Sudoeste 0 -- -- 98
2020-11-15 10:00:00 11.8 28 Sudoeste 43 Sur 0 -- -- 100
2020-11-15 09:00:00 11.2 26 Sudoeste 36 Sudoeste 0 -- -- 100
2020-11-15 08:00:00 10.6 21 Sudoeste 31 Sur 0 -- -- 99
2020-11-15 07:00:00 10.5 18 Sudoeste 29 Sudoeste 0.2 -- -- 99
2020-11-15 06:00:00 10.4 19 Sudoeste 35 Sudoeste 0 -- -- 99
2020-11-15 05:00:00 10.1 19 Sudoeste 30 Sudoeste 0 -- -- 99
2020-11-15 04:00:00 10.1 17 Sudoeste 29 Sudoeste 0 -- -- 99
2020-11-15 03:00:00 10.2 16 Sudoeste 24 Sudoeste 0 -- -- 98
2020-11-15 02:00:00 10.4 12 Sudoeste 24 Sudoeste 0.4 -- -- 98
2020-11-15 01:00:00 10.6 15 Sudoeste 26 Sudoeste 0 -- -- 98
2020-11-15 00:00:00 10.7 15 Sudoeste 29 Sudoeste 0 -- -- 99
2020-11-14 23:00:00 10.6 11 Sudoeste 18 Sur 0.2 -- -- 100
2020-11-14 22:00:00 10.2 5 Sur 12 Sudoeste 0 -- -- 99
2020-11-14 21:00:00 10 5 Sudoeste 10 Sur 0 -- -- 98
2020-11-14 20:00:00 9.8 5 Sur 8 Sur 0.4 -- -- 97
2020-11-14 19:00:00 9.8 3 Sur 6 Sur 0.2 -- -- 97
2020-11-14 18:00:00 9.8 5 Sudoeste 13 Sudoeste 0.2 -- -- 96
2020-11-14 17:00:00 10.3 10 Sudoeste 19 Sudoeste 0 -- -- 92
2020-11-14 16:00:00 10.5 14 Sudoeste 20 Sudoeste 0 -- -- 90
2020-11-14 15:00:00 9.7 8 Sudoeste 14 Sudoeste 0 -- -- 95
2020-11-14 14:00:00 9.7 9 Sudoeste 17 Sudoeste 0 -- -- 92
2020-11-14 13:00:00 9.5 5 Sur 8 Sur 0 -- -- 98
2020-11-14 12:00:00 7.9 0 Calma 7 Nordeste 0 -- -- 100
2020-11-14 11:00:00 6.3 2 Sudoeste 4 Sudoeste 0 -- -- 100
2020-11-14 10:00:00 5.7 2 Sur 6 Sur 0 -- -- 100
2020-11-14 09:00:00 4.6 5 Sur 6 Sur 0 -- -- 100
2020-11-14 08:00:00 4 2 Este 8 Norte 0 -- -- 100
2020-11-14 07:00:00 3.8 0 Calma 8 Nordeste 0 -- -- 100
2020-11-14 06:00:00 2.9 0 Calma 6 Nordeste 0 -- -- 100
2020-11-14 05:00:00 1.2 5 Nordeste 8 Nordeste 0 -- -- 99
2020-11-14 04:00:00 1.8 0 Calma 9 Norte 0 -- -- 97
2020-11-14 03:00:00 2.4 4 Norte 8 Nordeste 0 -- -- 98
2020-11-14 02:00:00 1.8 4 Norte 7 Norte 0 -- -- 98
2020-11-14 01:00:00 2.3 4 Norte 10 Norte 0 -- -- 97
2020-11-14 00:00:00 3.1 5 Norte 10 Norte 0 -- -- 97
2020-11-13 23:00:00 3.8 5 Norte 10 Norte 0 -- -- 97
2020-11-13 22:00:00 4.7 5 Norte 8 Noroeste 0 -- -- 96
2020-11-13 21:00:00 5.8 5 Norte 9 Noroeste 0 -- -- 95
2020-11-13 20:00:00 6.9 2 Noroeste 12 Sudoeste 0 -- -- 94
2020-11-13 19:00:00 9.2 9 Sudoeste 13 Sudoeste 0 -- -- 89
2020-11-13 18:00:00 12.3 8 Sur 15 Sudoeste 0 -- -- 80
2020-11-13 17:00:00 14 10 Sudoeste 19 Sudoeste 0 -- -- 73
2020-11-13 16:00:00 14.5 12 Sudoeste 19 Sudoeste 0 -- -- 69
2020-11-13 15:00:00 14.4 13 Sudoeste 21 Oeste 0 -- -- 72
2020-11-13 14:00:00 13.8 12 Sur 17 Sudoeste 0 -- -- 76
2020-11-13 13:00:00 12.5 8 Sur 16 Sur 0 -- -- 85
2020-11-13 12:00:00 10.7 5 Sudoeste 10 Sur 0 -- -- 93
2020-11-13 11:00:00 7.2 2 Noroeste 9 Noroeste 0 -- -- 94
2020-11-13 10:00:00 5.6 5 Norte 9 Noroeste 0 -- -- 99
2020-11-13 09:00:00 4.4 3 Norte 9 Nordeste 0 -- -- 99
2020-11-13 08:00:00 3.4 0 Calma 6 Norte 0 -- -- 97
2020-11-13 07:00:00 4.4 4 Nordeste 9 Norte 0 -- -- 97
2020-11-13 06:00:00 4.4 2 Norte 9 Nordeste 0 -- -- 97
2020-11-13 05:00:00 4.5 4 Norte 9 Nordeste 0 -- -- 96
2020-11-13 04:00:00 4.8 5 Nordeste 10 Norte 0 -- -- 97
2020-11-13 03:00:00 4.9 5 Norte 11 Norte 0 -- -- 97
2020-11-13 02:00:00 4.9 3 Norte 13 Norte 0 -- -- 96
2020-11-13 01:00:00 5.4 6 Norte 11 Norte 0 -- -- 97
2020-11-13 00:00:00 5.3 6 Norte 10 Norte 0 -- -- 97
2020-11-12 23:00:00 5.4 5 Norte 11 Noroeste 0 -- -- 96
2020-11-12 22:00:00 5.8 5 Norte 13 Norte 0 -- -- 96
2020-11-12 21:00:00 5.8 6 Norte 11 Norte 0 -- -- 97
2020-11-12 20:00:00 5.7 5 Nordeste 8 Nordeste 0 -- -- 97
2020-11-12 19:00:00 7 4 Sudeste 8 Sudeste 0 -- -- 94
2020-11-12 18:00:00 9.8 3 Sur 10 Sudoeste 0 -- -- 85
2020-11-12 17:00:00 13.6 8 Sudoeste 12 Sudoeste 0 -- -- 73
2020-11-12 16:00:00 13.3 5 Oeste 20 Oeste 0 -- -- 72
2020-11-12 15:00:00 13.1 8 Sudoeste 20 Sudoeste 0 -- -- 81
2020-11-12 14:00:00 12.7 8 Sudoeste 15 Sur 0 -- -- 82
2020-11-12 13:00:00 11.3 10 Sur 15 Sudoeste 0 -- -- 91
2020-11-12 12:00:00 9.2 8 Sudoeste 12 Oeste 0 -- -- 99
2020-11-12 11:00:00 8 6 Oeste 10 Oeste 0 -- -- 100
2020-11-12 10:00:00 7.3 3 Sudoeste 9 Oeste 0 -- -- 100
2020-11-12 09:00:00 7.1 6 Oeste 10 Oeste 0 -- -- 100
2020-11-12 08:00:00 6.6 2 Sur 6 Sur 0 -- -- 99
2020-11-12 07:00:00 6.8 3 Este 4 Sudeste 0 -- -- 98
2020-11-12 06:00:00 7.2 0 Calma 9 Noroeste 0 -- -- 99
2020-11-12 05:00:00 7.1 3 Noroeste 8 Noroeste 0 -- -- 99
2020-11-12 04:00:00 6.9 2 Noroeste 5 Noroeste 0 -- -- 99
2020-11-12 03:00:00 6.6 0 Calma 2 Sudeste 0 -- -- 99
2020-11-12 02:00:00 6.1 0 Calma 6 Sur 0 -- -- 98
2020-11-12 01:00:00 6.3 0 Calma 4 Sudoeste 0 -- -- 97
2020-11-12 00:00:00 7 0 Calma 7 Sudoeste 0 -- -- 97
2020-11-11 23:00:00 6.8 0 Calma 5 Sudoeste 0 -- -- 96
2020-11-11 22:00:00 7 4 Sudoeste 8 Sudoeste 0 -- -- 96
2020-11-11 21:00:00 7.2 4 Oeste 10 Sudoeste 0 -- -- 95
2020-11-11 20:00:00 7.4 4 Sudoeste 13 Sudoeste 0 -- -- 93
2020-11-11 19:00:00 7.8 7 Sudoeste 14 Oeste 0 -- -- 91
2020-11-11 18:00:00 8.7 8 Oeste 19 Oeste 0 -- -- 87
2020-11-11 17:00:00 9.2 10 Oeste 20 Oeste 0 -- -- 86
2020-11-11 16:00:00 9.6 13 Oeste 26 Oeste 0 -- -- 84
2020-11-11 15:00:00 9.5 18 Oeste 37 Oeste 0 -- -- 83
2020-11-11 14:00:00 8.6 22 Oeste 33 Oeste 0 -- -- 87
2020-11-11 13:00:00 7.2 15 Oeste 22 Oeste 0 -- -- 95
2020-11-11 12:00:00 6.3 12 Oeste 18 Sudoeste 0 -- -- 98
2020-11-11 11:00:00 5.6 10 Oeste 18 Oeste 0 -- -- 100
2020-11-11 10:00:00 4.5 7 Oeste 13 Sudoeste 0 -- -- 100
2020-11-11 09:00:00 2 2 Noroeste 6 Este 0 -- -- 100
2020-11-11 08:00:00 0.4 4 Nordeste 7 Noroeste 0 -- -- 99
2020-11-11 07:00:00 0.5 0 Calma 4 Este 0 -- -- 98
2020-11-11 06:00:00 2.2 0 Calma 6 Nordeste 0 -- -- 98
2020-11-11 05:00:00 2.7 2 Norte 8 Nordeste 0 -- -- 100
2020-11-11 04:00:00 1.9 3 Norte 7 Norte 0 -- -- 100
2020-11-11 03:00:00 1.6 5 Norte 8 Nordeste 0 -- -- 99
2020-11-11 02:00:00 1.9 2 Norte 8 Nordeste 0 -- -- 98
2020-11-11 01:00:00 2.8 5 Norte 9 Nordeste 0 -- -- 99
2020-11-11 00:00:00 2.6 3 Norte 7 Nordeste 0 -- -- 99
2020-11-10 23:00:00 3.3 4 Norte 8 Norte 0 -- -- 99
2020-11-10 22:00:00 3.5 5 Norte 9 Norte 0 -- -- 98
2020-11-10 21:00:00 3.4 5 Nordeste 6 Nordeste 0 -- -- 96
2020-11-10 20:00:00 5.3 0 Calma 9 Oeste 0 -- -- 94
2020-11-10 19:00:00 8.1 8 Noroeste 12 Noroeste 0 -- -- 86
2020-11-10 18:00:00 8.4 0 Calma 12 Oeste 0 -- -- 89
2020-11-10 17:00:00 9 3 Noroeste 8 Oeste 0 -- -- 90
2020-11-10 16:00:00 9.1 0 Calma 6 Nordeste 0 -- -- 92
2020-11-10 15:00:00 8.5 4 Nordeste 9 Oeste 0 -- -- 92
2020-11-10 14:00:00 8.5 5 Sudoeste 8 Sur 0 -- -- 95
2020-11-10 13:00:00 7.9 4 Oeste 6 Oeste 0 -- -- 100
2020-11-10 12:00:00 7.5 0 Calma 8 Sur 0 -- -- 100
2020-11-10 11:00:00 7.1 2 Este 9 Sur 0 -- -- 100
2020-11-10 10:00:00 6.2 0 Calma 6 Este 0 -- -- 100
2020-11-10 09:00:00 4.7 2 Nordeste 6 Noroeste 0 -- -- 100
2020-11-10 08:00:00 2.7 0 Calma 5 Noroeste 0 -- -- 100
2020-11-10 07:00:00 1.3 0 Calma 9 Norte 0 -- -- 100
2020-11-10 06:00:00 1.3 5 Norte 10 Norte 0 -- -- 100
2020-11-10 05:00:00 1.7 3 Norte 9 Norte 0 -- -- 98
2020-11-10 04:00:00 2.3 5 Norte 10 Norte 0 -- -- 99
2020-11-10 03:00:00 2.8 5 Norte 10 Nordeste 0 -- -- 100
2020-11-10 02:00:00 3 3 Norte 7 Norte 0 -- -- 99
2020-11-10 01:00:00 3 0 Calma 8 Norte 0 -- -- 99
2020-11-10 00:00:00 4 6 Nordeste 9 Norte 0 -- -- 98
2020-11-09 23:00:00 5.2 3 Nordeste 10 Norte 0 -- -- 98
2020-11-09 22:00:00 5.2 6 Nordeste 8 Norte 0 -- -- 98
2020-11-09 21:00:00 6.3 2 Norte 5 Oeste 0 -- -- 96
2020-11-09 20:00:00 8.1 0 Calma 17 Oeste 0.4 -- -- 93
2020-11-09 19:00:00 9.6 2 Noroeste 10 Oeste 0.4 -- -- 95
2020-11-09 18:00:00 10.1 0 Calma 9 Sudoeste 0 -- -- 90
2020-11-09 17:00:00 10.8 5 Oeste 9 Oeste 0 -- -- 87
2020-11-09 16:00:00 10.7 2 Oeste 11 Noroeste 0 -- -- 88
2020-11-09 15:00:00 10.5 9 Oeste 17 Oeste 0 -- -- 87
2020-11-09 14:00:00 11.2 13 Oeste 19 Sudoeste 0 -- -- 87
2020-11-09 13:00:00 9.9 14 Oeste 24 Sudoeste 0 -- -- 89
2020-11-09 12:00:00 10 11 Sudoeste 19 Sudoeste 0 -- -- 94
2020-11-09 11:00:00 9.3 9 Sudoeste 12 Sudoeste 0 -- -- 94
2020-11-09 10:00:00 8.5 10 Oeste 14 Oeste 0 -- -- 98
2020-11-09 09:00:00 8.2 11 Oeste 15 Sudoeste 0 -- -- 99
2020-11-09 08:00:00 8.3 8 Sudoeste 17 Sudoeste 0 -- -- 99
2020-11-09 07:00:00 8.2 6 Sudoeste 12 Sudoeste 0 -- -- 99
2020-11-09 06:00:00 8.2 5 Oeste 10 Oeste 0 -- -- 99
2020-11-09 05:00:00 7.8 4 Oeste 11 Sudoeste 0 -- -- 99
2020-11-09 04:00:00 7.9 7 Sudoeste 18 Sudoeste 0 -- -- 97
2020-11-09 03:00:00 8.5 12 Sudoeste 21 Sudoeste 0.2 -- -- 98
2020-11-09 02:00:00 8.5 13 Sudoeste 19 Sudoeste 0 -- -- 98
2020-11-09 01:00:00 8.5 9 Sur 21 Sudoeste 0.6 -- -- 98
2020-11-09 00:00:00 8.5 8 Sudeste 16 Sudoeste 0.2 -- -- 97
2020-11-08 23:00:00 8.7 12 Sudoeste 25 Sur 0.4 -- -- 97
2020-11-08 22:00:00 8.9 19 Sur 38 Sur 0.6 -- -- 97
2020-11-08 21:00:00 9.2 17 Sudoeste 35 Sudoeste 1.8 -- -- 97
2020-11-08 20:00:00 9.5 17 Sudoeste 31 Sudoeste 0.2 -- -- 92
2020-11-08 19:00:00 10.1 15 Sur 26 Sur 0 -- -- 95
2020-11-08 18:00:00 10.3 10 Sur 22 Sur 0 -- -- 96
2020-11-08 17:00:00 10.5 13 Sudoeste 18 Sur 0 -- -- 94
2020-11-08 16:00:00 10.4 9 Oeste 24 Sudoeste 0.6 -- -- 95
2020-11-08 15:00:00 10.7 17 Sudoeste 29 Sudoeste 1.2 -- -- 94
2020-11-08 14:00:00 10.8 14 Sur 30 Sudoeste 0.2 -- -- 91
2020-11-08 13:00:00 11.1 14 Sur 26 Sur 0 -- -- 89
2020-11-08 12:00:00 10.7 15 Sur 21 Sur 0 -- -- 89
2020-11-08 11:00:00 9.8 11 Sur 17 Sur 0 -- -- 92
2020-11-08 10:00:00 8.6 6 Sur 8 Sur 0 -- -- 99
2020-11-08 09:00:00 6.6 0 Calma 8 Sudeste 0 -- -- 97
2020-11-08 08:00:00 7.7 5 Sudeste 14 Sur 0 -- -- 94
2020-11-08 07:00:00 8.2 9 Sudeste 15 Sur 0.4 -- -- 95
2020-11-08 06:00:00 8.4 10 Sur 14 Sur 0.6 -- -- 95
2020-11-08 05:00:00 8.3 6 Sudeste 10 Sudeste 0 -- -- 94
2020-11-08 04:00:00 8.3 3 Este 8 Este 0 -- -- 94
2020-11-08 03:00:00 8.6 4 Este 13 Sur 0 -- -- 93
2020-11-08 02:00:00 8.8 7 Sur 15 Sudoeste 0 -- -- 92
2020-11-08 01:00:00 9.1 11 Sudoeste 22 Sudoeste 0 -- -- 92
2020-11-08 00:00:00 9.3 9 Sudoeste 22 Sudoeste 0 -- -- 90
2020-11-07 23:00:00 9.8 14 Sudoeste 24 Sudoeste 0 -- -- 88
2020-11-07 22:00:00 10.4 15 Sur 21 Sur 0 -- -- 88
2020-11-07 21:00:00 10.6 12 Sudoeste 19 Sudoeste 0 -- -- 85
2020-11-07 20:00:00 10.8 10 Sudoeste 22 Sudoeste 0 -- -- 83
2020-11-07 19:00:00 11.1 18 Sudoeste 27 Sudoeste 0 -- -- 78
2020-11-07 18:00:00 11.6 17 Sudoeste 33 Sudoeste 0 -- -- 77
2020-11-07 17:00:00 12.9 23 Sudoeste 42 Sudoeste 0 -- -- 72
2020-11-07 16:00:00 13.6 33 Sudoeste 44 Sudoeste 0 -- -- 69
2020-11-07 15:00:00 12.3 18 Oeste 39 Sudoeste 0 -- -- 81
2020-11-07 14:00:00 12.9 26 Sudoeste 39 Oeste 0 -- -- 80
2020-11-07 13:00:00 11.7 23 Sudoeste 33 Oeste 0 -- -- 88
2020-11-07 12:00:00 10.7 20 Sudoeste 28 Sudoeste 0.4 -- -- 93
2020-11-07 11:00:00 10.5 16 Sudoeste 24 Sudoeste 0 -- -- 96
2020-11-07 10:00:00 9.7 17 Sudoeste 26 Sur 0.2 -- -- 99
2020-11-07 09:00:00 9.3 12 Sur 22 Sur 0 -- -- 99
2020-11-07 08:00:00 9.3 9 Sur 16 Este 0 -- -- 98
2020-11-07 07:00:00 9.6 7 Sudeste 23 Sudeste 0.4 -- -- 98
2020-11-07 06:00:00 9.8 7 Sudeste 30 Sudeste 0 -- -- 98
2020-11-07 05:00:00 10.5 13 Sudeste 23 Sudeste 0 -- -- 99
2020-11-07 04:00:00 10.3 11 Sudeste 16 Sudeste 0.8 -- -- 99
2020-11-07 03:00:00 10.1 4 Sudeste 6 Sudeste 0.4 -- -- 99
2020-11-07 02:00:00 10.2 3 Este 14 Sur 0 -- -- 98
2020-11-07 01:00:00 10 12 Sur 17 Sur 1.8 -- -- 98
2020-11-07 00:00:00 9.3 5 Este 9 Sudeste 0 -- -- 97
2020-11-06 23:00:00 9.5 4 Sudeste 28 Sur 0.6 -- -- 95
2020-11-06 22:00:00 10.3 29 Sur 90 Sur 4.4 -- -- 93
2020-11-06 21:00:00 13.1 18 Sur 31 Sur 0 -- -- 85
2020-11-06 20:00:00 13.1 15 Sudeste 29 Sudeste 0 -- -- 86
2020-11-06 19:00:00 13.6 17 Sudeste 36 Sudeste 0 -- -- 86
2020-11-06 18:00:00 13.3 10 Sudeste 18 Sudeste 0 -- -- 88
2020-11-06 17:00:00 13.4 7 Sudeste 19 Sudeste 0 -- -- 87
2020-11-06 16:00:00 13.3 10 Sudeste 23 Sudeste 0 -- -- 85
2020-11-06 15:00:00 13.1 11 Este 28 Este 0 -- -- 87
2020-11-06 14:00:00 13.2 12 Este 35 Este 0 -- -- 86
2020-11-06 13:00:00 12.8 17 Este 31 Este 0 -- -- 86
2020-11-06 12:00:00 11.7 7 Este 22 Nordeste 0 -- -- 93
2020-11-06 11:00:00 10.3 4 Sudeste 11 Norte 0 -- -- 100
2020-11-06 10:00:00 7.9 3 Norte 8 Norte 0 -- -- 100
2020-11-06 09:00:00 6.8 4 Nordeste 12 Nordeste 0 -- -- 99
2020-11-06 08:00:00 6.2 0 Calma 9 Sudeste 0 -- -- 99
2020-11-06 07:00:00 6.2 0 Calma 10 Este 0 -- -- 98
2020-11-06 06:00:00 6.1 0 Calma 5 Norte 0 -- -- 99
2020-11-06 05:00:00 5.8 0 Calma 9 Este 0 -- -- 98
2020-11-06 04:00:00 6.4 3 Nordeste 9 Nordeste 0.2 -- -- 96
2020-11-06 03:00:00 7.3 5 Este 13 Sudeste 0 -- -- 96
2020-11-06 02:00:00 7.8 5 Este 13 Este 0 -- -- 95
2020-11-06 01:00:00 8.7 5 Este 19 Este 0 -- -- 95
2020-11-06 00:00:00 8.5 8 Este 19 Nordeste 0.2 -- -- 95
2020-11-05 23:00:00 8.4 7 Nordeste 19 Nordeste 0.2 -- -- 93
2020-11-05 22:00:00 8.6 10 Nordeste 21 Nordeste 0 -- -- 89
2020-11-05 21:00:00 8.4 12 Nordeste 21 Nordeste 0 -- -- 88
2020-11-05 20:00:00 9.2 11 Este 23 Este 0 -- -- 85
2020-11-05 19:00:00 9.6 11 Este 25 Nordeste 0 -- -- 83
2020-11-05 18:00:00 9.7 13 Este 28 Este 0 -- -- 83
2020-11-05 17:00:00 10.5 15 Este 26 Este 0 -- -- 80
2020-11-05 16:00:00 11.3 12 Este 27 Este 0 -- -- 76
2020-11-05 15:00:00 11.9 13 Este 27 Este 0 -- -- 74
2020-11-05 14:00:00 11.5 16 Este 31 Nordeste 0 -- -- 74
2020-11-05 13:00:00 10.7 15 Este 32 Este 0 -- -- 77
2020-11-05 12:00:00 9.9 10 Nordeste 28 Este 0 -- -- 81
2020-11-05 11:00:00 8.6 13 Nordeste 27 Nordeste 0 -- -- 84
2020-11-05 10:00:00 7.1 13 Nordeste 31 Nordeste 0 -- -- 88
2020-11-05 09:00:00 6.1 12 Nordeste 32 Nordeste 0 -- -- 90
2020-11-05 08:00:00 5.7 15 Nordeste 30 Este 0 -- -- 91
2020-11-05 07:00:00 5.3 16 Nordeste 28 Nordeste 0 -- -- 92
2020-11-05 06:00:00 5 13 Nordeste 32 Nordeste 0 -- -- 91
2020-11-05 05:00:00 4.8 14 Nordeste 35 Nordeste 0 -- -- 90
2020-11-05 04:00:00 5.1 15 Nordeste 36 Nordeste 0 -- -- 88
2020-11-05 03:00:00 5 24 Nordeste 42 Nordeste 0 -- -- 87
2020-11-05 02:00:00 4.7 22 Nordeste 40 Nordeste 0 -- -- 86
2020-11-05 01:00:00 4.3 26 Nordeste 43 Nordeste 0 -- -- 84
2020-11-05 00:00:00 4.4 25 Nordeste 47 Nordeste 0 -- -- 82